createdAt,value
2023-11-21T00:00:30.549Z,96.2
2023-11-21T00:15:54.715Z,96.1
2023-11-21T00:31:19.598Z,96.2
2023-11-21T00:46:44.682Z,96.3
2023-11-21T01:02:09.754Z,96.2
2023-11-21T01:17:35.438Z,96.2
2023-11-21T01:33:00.732Z,96.2
2023-11-21T01:48:26.283Z,96.3
2023-11-21T02:03:51.710Z,96.4
2023-11-21T02:19:16.743Z,96.5
2023-11-21T02:34:42.041Z,96.5
2023-11-21T02:50:07.421Z,96.5
2023-11-21T03:05:32.226Z,96.5
2023-11-21T03:20:57.602Z,96.5
2023-11-21T03:36:22.828Z,96.7
2023-11-21T03:51:48.693Z,96.8
2023-11-21T04:07:14.087Z,97
2023-11-21T04:22:39.124Z,97
2023-11-21T04:38:04.262Z,96.9
2023-11-21T04:53:29.303Z,97
2023-11-21T05:08:54.433Z,97.3
2023-11-21T05:24:19.386Z,97.3
2023-11-21T05:39:44.933Z,97.2
2023-11-21T05:55:12.196Z,97.2
2023-11-21T06:10:37.795Z,97.3
2023-11-21T06:26:03.039Z,97.4
2023-11-21T06:41:28.394Z,97.4
2023-11-21T06:56:53.167Z,97.6
2023-11-21T07:12:17.606Z,97.9
2023-11-21T07:27:42.281Z,97.9
2023-11-21T07:43:07.022Z,98
2023-11-21T07:58:31.885Z,98.1
2023-11-21T08:13:57.166Z,98
2023-11-21T08:29:22.057Z,97.8
2023-11-21T08:44:47.119Z,97.4
2023-11-21T09:00:11.777Z,97.3
2023-11-21T09:15:36.598Z,97.2
2023-11-21T09:31:01.291Z,97
2023-11-21T09:46:26.764Z,96.6
2023-11-21T10:01:52.275Z,96.5
2023-11-21T10:17:17.966Z,96.2
2023-11-21T10:32:43.654Z,96
2023-11-21T10:48:09.170Z,95.7
2023-11-21T11:03:34.306Z,95.4
2023-11-21T11:18:59.123Z,95.4
2023-11-21T11:34:24.176Z,95.2
2023-11-21T11:49:49.305Z,94.8
2023-11-21T12:05:14.828Z,94.3
2023-11-21T12:20:41.054Z,94.2
2023-11-21T12:36:06.407Z,94.3
2023-11-21T12:51:31.636Z,93.9
2023-11-21T13:06:56.244Z,93.7
2023-11-21T13:22:20.716Z,94
2023-11-21T13:37:46.262Z,93.7
2023-11-21T13:53:11.256Z,93.8
2023-11-21T14:08:36.573Z,93.7
2023-11-21T14:24:01.215Z,93.6
2023-11-21T14:39:26.504Z,93.6
2023-11-21T14:54:51.489Z,93.7
2023-11-21T15:10:17.719Z,93.7
2023-11-21T15:25:42.630Z,93.9
2023-11-21T15:41:07.679Z,94
2023-11-21T15:56:32.998Z,93.1
2023-11-21T16:11:57.855Z,93.8
2023-11-21T16:27:22.429Z,93.7
2023-11-21T16:42:47.539Z,93.3
2023-11-21T16:58:12.780Z,93.6
2023-11-21T17:13:37.814Z,93.5
2023-11-21T17:29:03.393Z,93.8
2023-11-21T17:44:27.801Z,94.2
2023-11-21T17:59:52.980Z,93.3
2023-11-21T18:15:18.261Z,93.2
2023-11-21T18:30:42.833Z,93.1
2023-11-21T18:46:08.155Z,93
2023-11-21T19:01:33.831Z,92.8
2023-11-21T19:16:59.851Z,92.7
2023-11-21T19:32:25.069Z,92.7
2023-11-21T19:47:50.761Z,92.6
2023-11-21T20:03:16.097Z,92.8
2023-11-21T20:18:40.908Z,93.3
2023-11-21T20:34:05.802Z,92.9
2023-11-21T20:49:49.984Z,92.9
2023-11-21T21:05:16.105Z,93.1
2023-11-21T21:20:41.329Z,92.9
2023-11-21T21:36:06.366Z,93
2023-11-21T21:51:31.670Z,93
2023-11-21T22:06:56.939Z,92.9
2023-11-21T22:22:25.201Z,92.9
2023-11-21T22:37:50.480Z,93.1
2023-11-21T22:53:15.809Z,93.2
2023-11-21T23:08:40.842Z,93.3
2023-11-21T23:24:05.641Z,93.3
2023-11-21T23:39:29.941Z,93.3
2023-11-21T23:54:54.642Z,93.4
